sensor_id;sensor_type;location;lat;lon;timestamp;P1;durP1;ratioP1;P2;durP2;ratioP2
78931;SDS011;68331;53.362;55.932;2023-03-23T00:00:00;15.98;;;8.27;;
78931;SDS011;68331;53.362;55.932;2023-03-23T00:02:26;16.30;;;8.30;;
78931;SDS011;68331;53.362;55.932;2023-03-23T00:04:54;18.17;;;7.93;;
78931;SDS011;68331;53.362;55.932;2023-03-23T00:07:21;18.08;;;8.02;;
78931;SDS011;68331;53.362;55.932;2023-03-23T00:09:48;12.80;;;8.05;;
78931;SDS011;68331;53.362;55.932;2023-03-23T00:12:24;15.98;;;8.43;;
78931;SDS011;68331;53.362;55.932;2023-03-23T00:15:03;13.68;;;7.88;;
78931;SDS011;68331;53.362;55.932;2023-03-23T00:17:31;13.98;;;8.15;;
78931;SDS011;68331;53.362;55.932;2023-03-23T00:20:01;12.40;;;7.95;;
78931;SDS011;68331;53.362;55.932;2023-03-23T00:22:30;12.35;;;7.75;;
78931;SDS011;68331;53.362;55.932;2023-03-23T00:25:03;13.43;;;7.38;;
78931;SDS011;68331;53.362;55.932;2023-03-23T00:27:30;15.27;;;8.18;;
78931;SDS011;68331;53.362;55.932;2023-03-23T00:29:56;12.63;;;7.93;;
78931;SDS011;68331;53.362;55.932;2023-03-23T00:32:23;12.52;;;7.65;;
78931;SDS011;68331;53.362;55.932;2023-03-23T00:34:54;14.40;;;8.18;;
78931;SDS011;68331;53.362;55.932;2023-03-23T00:39:48;13.85;;;7.30;;
78931;SDS011;68331;53.362;55.932;2023-03-23T00:42:14;13.27;;;8.10;;
78931;SDS011;68331;53.362;55.932;2023-03-23T00:44:42;13.63;;;8.07;;
78931;SDS011;68331;53.362;55.932;2023-03-23T00:47:11;15.93;;;8.10;;
78931;SDS011;68331;53.362;55.932;2023-03-23T00:49:38;14.52;;;7.85;;
78931;SDS011;68331;53.362;55.932;2023-03-23T00:52:04;14.70;;;7.70;;
78931;SDS011;68331;53.362;55.932;2023-03-23T00:54:31;15.38;;;8.23;;
78931;SDS011;68331;53.362;55.932;2023-03-23T00:56:59;16.42;;;7.88;;
78931;SDS011;68331;53.362;55.932;2023-03-23T00:59:26;11.10;;;7.18;;
78931;SDS011;68331;53.362;55.932;2023-03-23T01:01:52;14.68;;;7.35;;
78931;SDS011;68331;53.362;55.932;2023-03-23T01:04:18;11.27;;;6.68;;
78931;SDS011;68331;53.362;55.932;2023-03-23T01:06:48;12.50;;;6.80;;
78931;SDS011;68331;53.362;55.932;2023-03-23T01:09:16;14.80;;;7.95;;
78931;SDS011;68331;53.362;55.932;2023-03-23T01:11:47;13.95;;;7.10;;
78931;SDS011;68331;53.362;55.932;2023-03-23T01:14:15;11.80;;;6.63;;
78931;SDS011;68331;53.362;55.932;2023-03-23T01:16:43;17.58;;;7.50;;
78931;SDS011;68331;53.362;55.932;2023-03-23T01:19:10;11.13;;;6.65;;
78931;SDS011;68331;53.362;55.932;2023-03-23T01:21:36;11.73;;;6.88;;
78931;SDS011;68331;53.362;55.932;2023-03-23T01:24:02;13.77;;;7.00;;
78931;SDS011;68331;53.362;55.932;2023-03-23T01:26:28;10.25;;;6.78;;
78931;SDS011;68331;53.362;55.932;2023-03-23T01:28:55;18.55;;;6.28;;
78931;SDS011;68331;53.362;55.932;2023-03-23T01:31:22;11.02;;;6.45;;
78931;SDS011;68331;53.362;55.932;2023-03-23T01:33:50;10.98;;;6.30;;
78931;SDS011;68331;53.362;55.932;2023-03-23T01:36:18;15.93;;;7.07;;
78931;SDS011;68331;53.362;55.932;2023-03-23T01:38:47;12.85;;;7.15;;
78931;SDS011;68331;53.362;55.932;2023-03-23T01:41:14;14.93;;;7.45;;
78931;SDS011;68331;53.362;55.932;2023-03-23T01:43:58;10.00;;;6.70;;
78931;SDS011;68331;53.362;55.932;2023-03-23T01:46:42;13.18;;;7.07;;
78931;SDS011;68331;53.362;55.932;2023-03-23T01:49:13;15.32;;;7.35;;
78931;SDS011;68331;53.362;55.932;2023-03-23T01:51:45;13.55;;;6.55;;
78931;SDS011;68331;53.362;55.932;2023-03-23T01:54:15;12.02;;;7.13;;
78931;SDS011;68331;53.362;55.932;2023-03-23T01:57:03;11.65;;;7.30;;
78931;SDS011;68331;53.362;55.932;2023-03-23T01:59:34;13.85;;;8.63;;
78931;SDS011;68331;53.362;55.932;2023-03-23T02:02:28;11.85;;;7.50;;
78931;SDS011;68331;53.362;55.932;2023-03-23T02:04:57;16.70;;;8.07;;
78931;SDS011;68331;53.362;55.932;2023-03-23T02:07:30;15.82;;;8.45;;
78931;SDS011;68331;53.362;55.932;2023-03-23T02:09:58;14.05;;;8.13;;
78931;SDS011;68331;53.362;55.932;2023-03-23T02:12:28;15.82;;;8.15;;
78931;SDS011;68331;53.362;55.932;2023-03-23T02:14:54;11.13;;;7.43;;
78931;SDS011;68331;53.362;55.932;2023-03-23T02:22:53;21.60;;;8.57;;
78931;SDS011;68331;53.362;55.932;2023-03-23T02:33:59;15.88;;;9.13;;
78931;SDS011;68331;53.362;55.932;2023-03-23T02:36:38;14.13;;;7.97;;
78931;SDS011;68331;53.362;55.932;2023-03-23T02:39:53;12.95;;;8.18;;
78931;SDS011;68331;53.362;55.932;2023-03-23T02:42:16;13.98;;;8.70;;
78931;SDS011;68331;53.362;55.932;2023-03-23T02:44:48;13.23;;;7.55;;
78931;SDS011;68331;53.362;55.932;2023-03-23T02:47:19;13.52;;;8.15;;
78931;SDS011;68331;53.362;55.932;2023-03-23T02:49:49;15.63;;;8.80;;
78931;SDS011;68331;53.362;55.932;2023-03-23T02:52:22;14.85;;;9.30;;
78931;SDS011;68331;53.362;55.932;2023-03-23T02:54:52;15.90;;;9.10;;
78931;SDS011;68331;53.362;55.932;2023-03-23T02:57:22;14.57;;;8.88;;
78931;SDS011;68331;53.362;55.932;2023-03-23T02:59:52;17.52;;;10.13;;
78931;SDS011;68331;53.362;55.932;2023-03-23T03:02:21;18.52;;;9.15;;
78931;SDS011;68331;53.362;55.932;2023-03-23T03:08:00;15.18;;;8.70;;
78931;SDS011;68331;53.362;55.932;2023-03-23T03:10:41;16.27;;;8.40;;
78931;SDS011;68331;53.362;55.932;2023-03-23T03:21:45;18.02;;;8.57;;
78931;SDS011;68331;53.362;55.932;2023-03-23T03:24:19;17.05;;;8.63;;
78931;SDS011;68331;53.362;55.932;2023-03-23T03:26:50;17.52;;;8.23;;
78931;SDS011;68331;53.362;55.932;2023-03-23T03:29:28;11.95;;;7.28;;
78931;SDS011;68331;53.362;55.932;2023-03-23T03:31:58;17.13;;;7.63;;
78931;SDS011;68331;53.362;55.932;2023-03-23T03:34:26;14.70;;;8.90;;
78931;SDS011;68331;53.362;55.932;2023-03-23T03:36:54;13.80;;;8.52;;
78931;SDS011;68331;53.362;55.932;2023-03-23T03:39:25;11.93;;;7.35;;
78931;SDS011;68331;53.362;55.932;2023-03-23T03:44:19;13.45;;;7.00;;
78931;SDS011;68331;53.362;55.932;2023-03-23T03:46:45;14.10;;;7.57;;
78931;SDS011;68331;53.362;55.932;2023-03-23T03:49:12;11.82;;;7.85;;
78931;SDS011;68331;53.362;55.932;2023-03-23T03:51:40;14.23;;;8.27;;
78931;SDS011;68331;53.362;55.932;2023-03-23T03:54:13;15.63;;;8.18;;
78931;SDS011;68331;53.362;55.932;2023-03-23T03:56:39;12.95;;;9.13;;
78931;SDS011;68331;53.362;55.932;2023-03-23T03:59:34;16.48;;;10.57;;
78931;SDS011;68331;53.362;55.932;2023-03-23T04:02:19;17.23;;;9.65;;
78931;SDS011;68331;53.362;55.932;2023-03-23T04:04:49;14.43;;;9.45;;
78931;SDS011;68331;53.362;55.932;2023-03-23T04:07:17;16.77;;;9.23;;
78931;SDS011;68331;53.362;55.932;2023-03-23T04:09:44;16.55;;;9.65;;
78931;SDS011;68331;53.362;55.932;2023-03-23T04:12:16;15.70;;;8.63;;
78931;SDS011;68331;53.362;55.932;2023-03-23T04:14:54;15.57;;;8.95;;
78931;SDS011;68331;53.362;55.932;2023-03-23T04:19:51;16.45;;;8.77;;
78931;SDS011;68331;53.362;55.932;2023-03-23T04:22:18;13.63;;;9.25;;
78931;SDS011;68331;53.362;55.932;2023-03-23T04:24:44;14.32;;;8.88;;
78931;SDS011;68331;53.362;55.932;2023-03-23T04:27:15;14.50;;;9.73;;
78931;SDS011;68331;53.362;55.932;2023-03-23T04:29:42;13.35;;;9.10;;
78931;SDS011;68331;53.362;55.932;2023-03-23T04:32:35;14.75;;;9.77;;
78931;SDS011;68331;53.362;55.932;2023-03-23T04:35:06;15.27;;;10.35;;
78931;SDS011;68331;53.362;55.932;2023-03-23T04:37:39;16.83;;;9.25;;
78931;SDS011;68331;53.362;55.932;2023-03-23T04:40:07;16.40;;;9.18;;
78931;SDS011;68331;53.362;55.932;2023-03-23T04:42:43;16.48;;;9.02;;
78931;SDS011;68331;53.362;55.932;2023-03-23T04:45:33;18.75;;;11.77;;
78931;SDS011;68331;53.362;55.932;2023-03-23T04:48:05;15.52;;;9.00;;
78931;SDS011;68331;53.362;55.932;2023-03-23T04:50:40;12.98;;;8.48;;
78931;SDS011;68331;53.362;55.932;2023-03-23T04:53:15;16.70;;;9.70;;
78931;SDS011;68331;53.362;55.932;2023-03-23T04:55:44;24.30;;;10.05;;
78931;SDS011;68331;53.362;55.932;2023-03-23T04:58:13;15.82;;;8.80;;
78931;SDS011;68331;53.362;55.932;2023-03-23T05:00:54;18.35;;;9.05;;
78931;SDS011;68331;53.362;55.932;2023-03-23T05:03:22;12.32;;;8.15;;
78931;SDS011;68331;53.362;55.932;2023-03-23T05:05:50;14.45;;;8.75;;
78931;SDS011;68331;53.362;55.932;2023-03-23T05:08:22;15.40;;;9.38;;
78931;SDS011;68331;53.362;55.932;2023-03-23T05:10:57;13.95;;;9.45;;
78931;SDS011;68331;53.362;55.932;2023-03-23T05:13:27;15.02;;;9.30;;
78931;SDS011;68331;53.362;55.932;2023-03-23T05:15:56;15.57;;;9.57;;
78931;SDS011;68331;53.362;55.932;2023-03-23T05:18:22;18.75;;;10.00;;
78931;SDS011;68331;53.362;55.932;2023-03-23T05:20:48;15.20;;;10.05;;
78931;SDS011;68331;53.362;55.932;2023-03-23T05:23:18;15.80;;;10.50;;
78931;SDS011;68331;53.362;55.932;2023-03-23T05:25:54;14.65;;;9.43;;
78931;SDS011;68331;53.362;55.932;2023-03-23T05:28:22;19.00;;;10.70;;
78931;SDS011;68331;53.362;55.932;2023-03-23T05:30:53;16.30;;;10.20;;
78931;SDS011;68331;53.362;55.932;2023-03-23T05:33:20;16.35;;;10.43;;
78931;SDS011;68331;53.362;55.932;2023-03-23T05:36:09;17.67;;;10.63;;
78931;SDS011;68331;53.362;55.932;2023-03-23T05:39:01;17.85;;;9.95;;
78931;SDS011;68331;53.362;55.932;2023-03-23T05:41:45;15.43;;;11.05;;
78931;SDS011;68331;53.362;55.932;2023-03-23T05:44:13;17.73;;;10.27;;
78931;SDS011;68331;53.362;55.932;2023-03-23T05:46:48;19.08;;;11.20;;
78931;SDS011;68331;53.362;55.932;2023-03-23T05:49:15;18.50;;;11.65;;
78931;SDS011;68331;53.362;55.932;2023-03-23T05:51:43;14.02;;;10.13;;
78931;SDS011;68331;53.362;55.932;2023-03-23T05:54:12;17.45;;;11.15;;
78931;SDS011;68331;53.362;55.932;2023-03-23T05:56:41;15.73;;;10.70;;
78931;SDS011;68331;53.362;55.932;2023-03-23T05:59:18;16.85;;;10.48;;
78931;SDS011;68331;53.362;55.932;2023-03-23T06:01:47;16.52;;;11.02;;
78931;SDS011;68331;53.362;55.932;2023-03-23T06:04:13;17.83;;;10.95;;
78931;SDS011;68331;53.362;55.932;2023-03-23T06:06:47;15.45;;;10.77;;
78931;SDS011;68331;53.362;55.932;2023-03-23T06:09:14;15.13;;;10.55;;
78931;SDS011;68331;53.362;55.932;2023-03-23T06:11:58;15.70;;;10.93;;
78931;SDS011;68331;53.362;55.932;2023-03-23T06:14:36;16.88;;;10.65;;
78931;SDS011;68331;53.362;55.932;2023-03-23T06:17:03;16.65;;;11.70;;
78931;SDS011;68331;53.362;55.932;2023-03-23T06:19:30;17.33;;;10.73;;
78931;SDS011;68331;53.362;55.932;2023-03-23T06:22:04;17.95;;;11.20;;
78931;SDS011;68331;53.362;55.932;2023-03-23T06:24:42;20.77;;;12.40;;
78931;SDS011;68331;53.362;55.932;2023-03-23T06:27:11;19.70;;;12.05;;
78931;SDS011;68331;53.362;55.932;2023-03-23T06:29:40;23.50;;;13.07;;
78931;SDS011;68331;53.362;55.932;2023-03-23T06:32:09;17.65;;;11.18;;
78931;SDS011;68331;53.362;55.932;2023-03-23T06:34:38;19.67;;;12.20;;
78931;SDS011;68331;53.362;55.932;2023-03-23T06:37:29;16.90;;;12.48;;
78931;SDS011;68331;53.362;55.932;2023-03-23T06:40:22;19.15;;;13.45;;
78931;SDS011;68331;53.362;55.932;2023-03-23T06:42:54;19.33;;;13.40;;
78931;SDS011;68331;53.362;55.932;2023-03-23T06:45:40;21.75;;;13.73;;
78931;SDS011;68331;53.362;55.932;2023-03-23T06:48:27;20.50;;;14.98;;
78931;SDS011;68331;53.362;55.932;2023-03-23T06:50:53;17.40;;;14.10;;
78931;SDS011;68331;53.362;55.932;2023-03-23T06:53:22;17.23;;;13.45;;
78931;SDS011;68331;53.362;55.932;2023-03-23T06:55:49;26.77;;;17.77;;
78931;SDS011;68331;53.362;55.932;2023-03-23T06:58:16;40.90;;;24.98;;
78931;SDS011;68331;53.362;55.932;2023-03-23T07:00:42;35.42;;;20.50;;
78931;SDS011;68331;53.362;55.932;2023-03-23T07:03:12;35.47;;;20.27;;
78931;SDS011;68331;53.362;55.932;2023-03-23T07:05:38;38.38;;;23.48;;
78931;SDS011;68331;53.362;55.932;2023-03-23T07:08:05;28.67;;;18.30;;
78931;SDS011;68331;53.362;55.932;2023-03-23T07:10:40;25.85;;;17.98;;
78931;SDS011;68331;53.362;55.932;2023-03-23T07:13:08;25.83;;;17.02;;
78931;SDS011;68331;53.362;55.932;2023-03-23T07:15:44;26.40;;;16.00;;
78931;SDS011;68331;53.362;55.932;2023-03-23T07:18:10;22.98;;;17.02;;
78931;SDS011;68331;53.362;55.932;2023-03-23T07:20:42;25.08;;;17.73;;
78931;SDS011;68331;53.362;55.932;2023-03-23T07:23:08;19.33;;;13.50;;
78931;SDS011;68331;53.362;55.932;2023-03-23T07:25:41;19.85;;;14.07;;
78931;SDS011;68331;53.362;55.932;2023-03-23T07:28:12;21.48;;;14.40;;
78931;SDS011;68331;53.362;55.932;2023-03-23T07:30:38;21.85;;;13.73;;
78931;SDS011;68331;53.362;55.932;2023-03-23T07:33:05;22.10;;;13.82;;
78931;SDS011;68331;53.362;55.932;2023-03-23T07:35:32;19.35;;;13.77;;
78931;SDS011;68331;53.362;55.932;2023-03-23T07:38:05;21.83;;;12.45;;
78931;SDS011;68331;53.362;55.932;2023-03-23T07:40:32;18.20;;;12.70;;
78931;SDS011;68331;53.362;55.932;2023-03-23T07:43:04;18.42;;;12.00;;
78931;SDS011;68331;53.362;55.932;2023-03-23T07:45:49;17.83;;;11.93;;
78931;SDS011;68331;53.362;55.932;2023-03-23T07:48:17;18.17;;;11.88;;
78931;SDS011;68331;53.362;55.932;2023-03-23T07:50:43;14.00;;;9.98;;
78931;SDS011;68331;53.362;55.932;2023-03-23T07:53:11;17.98;;;11.85;;
78931;SDS011;68331;53.362;55.932;2023-03-23T07:55:39;17.23;;;10.98;;
78931;SDS011;68331;53.362;55.932;2023-03-23T07:58:17;16.80;;;11.02;;
78931;SDS011;68331;53.362;55.932;2023-03-23T08:00:46;19.77;;;10.82;;
78931;SDS011;68331;53.362;55.932;2023-03-23T08:03:16;20.55;;;11.52;;
78931;SDS011;68331;53.362;55.932;2023-03-23T08:06:05;18.15;;;10.75;;
78931;SDS011;68331;53.362;55.932;2023-03-23T08:08:54;15.70;;;9.30;;
78931;SDS011;68331;53.362;55.932;2023-03-23T08:11:38;16.15;;;10.65;;
78931;SDS011;68331;53.362;55.932;2023-03-23T08:14:23;20.48;;;10.30;;
78931;SDS011;68331;53.362;55.932;2023-03-23T08:17:10;13.95;;;9.75;;
78931;SDS011;68331;53.362;55.932;2023-03-23T08:19:56;15.73;;;9.52;;
78931;SDS011;68331;53.362;55.932;2023-03-23T08:22:45;17.95;;;10.32;;
78931;SDS011;68331;53.362;55.932;2023-03-23T08:25:27;16.80;;;10.30;;
78931;SDS011;68331;53.362;55.932;2023-03-23T08:28:26;15.05;;;10.20;;
78931;SDS011;68331;53.362;55.932;2023-03-23T08:31:30;16.23;;;10.02;;
78931;SDS011;68331;53.362;55.932;2023-03-23T08:34:27;17.58;;;9.88;;
78931;SDS011;68331;53.362;55.932;2023-03-23T08:37:24;21.67;;;11.15;;
78931;SDS011;68331;53.362;55.932;2023-03-23T08:40:11;17.13;;;9.85;;
78931;SDS011;68331;53.362;55.932;2023-03-23T08:42:57;19.77;;;10.68;;
78931;SDS011;68331;53.362;55.932;2023-03-23T08:45:42;18.80;;;10.85;;
78931;SDS011;68331;53.362;55.932;2023-03-23T08:48:40;19.75;;;10.48;;
78931;SDS011;68331;53.362;55.932;2023-03-23T08:51:24;20.52;;;10.07;;
78931;SDS011;68331;53.362;55.932;2023-03-23T08:54:26;17.00;;;10.77;;
78931;SDS011;68331;53.362;55.932;2023-03-23T08:57:00;17.80;;;11.25;;
78931;SDS011;68331;53.362;55.932;2023-03-23T08:59:47;18.80;;;11.30;;
78931;SDS011;68331;53.362;55.932;2023-03-23T09:02:36;18.27;;;11.57;;
78931;SDS011;68331;53.362;55.932;2023-03-23T09:05:15;22.77;;;11.23;;
78931;SDS011;68331;53.362;55.932;2023-03-23T09:08:09;20.20;;;12.27;;
78931;SDS011;68331;53.362;55.932;2023-03-23T09:10:35;19.00;;;10.85;;
78931;SDS011;68331;53.362;55.932;2023-03-23T09:13:01;22.83;;;11.43;;
78931;SDS011;68331;53.362;55.932;2023-03-23T09:15:27;24.63;;;12.68;;
78931;SDS011;68331;53.362;55.932;2023-03-23T09:17:53;26.27;;;13.35;;
78931;SDS011;68331;53.362;55.932;2023-03-23T09:20:21;22.20;;;12.95;;
78931;SDS011;68331;53.362;55.932;2023-03-23T09:22:50;29.55;;;14.82;;
78931;SDS011;68331;53.362;55.932;2023-03-23T09:25:19;26.88;;;14.05;;
78931;SDS011;68331;53.362;55.932;2023-03-23T09:27:50;27.80;;;14.00;;
78931;SDS011;68331;53.362;55.932;2023-03-23T09:30:19;29.67;;;13.55;;
78931;SDS011;68331;53.362;55.932;2023-03-23T09:32:46;24.65;;;13.07;;
78931;SDS011;68331;53.362;55.932;2023-03-23T09:35:14;26.27;;;13.35;;
78931;SDS011;68331;53.362;55.932;2023-03-23T09:37:42;25.90;;;13.18;;
78931;SDS011;68331;53.362;55.932;2023-03-23T09:40:12;28.85;;;14.20;;
78931;SDS011;68331;53.362;55.932;2023-03-23T09:45:49;24.58;;;13.80;;
78931;SDS011;68331;53.362;55.932;2023-03-23T09:53:56;22.63;;;13.38;;
78931;SDS011;68331;53.362;55.932;2023-03-23T09:56:29;23.50;;;13.90;;
78931;SDS011;68331;53.362;55.932;2023-03-23T09:58:59;31.85;;;15.55;;
78931;SDS011;68331;53.362;55.932;2023-03-23T10:01:40;29.75;;;15.85;;
78931;SDS011;68331;53.362;55.932;2023-03-23T10:04:15;28.05;;;15.95;;
78931;SDS011;68331;53.362;55.932;2023-03-23T10:07:12;27.98;;;15.20;;
78931;SDS011;68331;53.362;55.932;2023-03-23T10:09:41;30.55;;;16.30;;
78931;SDS011;68331;53.362;55.932;2023-03-23T10:12:19;26.65;;;15.57;;
78931;SDS011;68331;53.362;55.932;2023-03-23T10:17:44;27.58;;;14.90;;
78931;SDS011;68331;53.362;55.932;2023-03-23T10:20:19;23.42;;;14.70;;
78931;SDS011;68331;53.362;55.932;2023-03-23T10:25:52;23.58;;;13.00;;
78931;SDS011;68331;53.362;55.932;2023-03-23T10:28:44;27.08;;;15.00;;
78931;SDS011;68331;53.362;55.932;2023-03-23T10:31:14;28.15;;;15.00;;
78931;SDS011;68331;53.362;55.932;2023-03-23T10:33:46;26.35;;;14.80;;
78931;SDS011;68331;53.362;55.932;2023-03-23T10:36:23;25.55;;;14.88;;
78931;SDS011;68331;53.362;55.932;2023-03-23T10:39:12;29.13;;;15.07;;
78931;SDS011;68331;53.362;55.932;2023-03-23T10:41:43;29.35;;;14.50;;
78931;SDS011;68331;53.362;55.932;2023-03-23T10:44:14;22.10;;;13.35;;
78931;SDS011;68331;53.362;55.932;2023-03-23T10:49:32;25.17;;;14.82;;
78931;SDS011;68331;53.362;55.932;2023-03-23T10:55:05;24.55;;;13.98;;
78931;SDS011;68331;53.362;55.932;2023-03-23T10:58:06;30.23;;;14.20;;
78931;SDS011;68331;53.362;55.932;2023-03-23T11:00:43;23.98;;;13.98;;
78931;SDS011;68331;53.362;55.932;2023-03-23T11:06:22;19.15;;;12.35;;
78931;SDS011;68331;53.362;55.932;2023-03-23T11:08:32;22.73;;;12.75;;
78931;SDS011;68331;53.362;55.932;2023-03-23T11:11:28;20.13;;;11.57;;
78931;SDS011;68331;53.362;55.932;2023-03-23T11:14:13;24.23;;;14.10;;
78931;SDS011;68331;53.362;55.932;2023-03-23T11:16:44;23.90;;;13.45;;
78931;SDS011;68331;53.362;55.932;2023-03-23T11:19:30;25.02;;;13.85;;
78931;SDS011;68331;53.362;55.932;2023-03-23T11:22:05;23.27;;;13.68;;
78931;SDS011;68331;53.362;55.932;2023-03-23T11:24:43;21.17;;;13.82;;
78931;SDS011;68331;53.362;55.932;2023-03-23T11:27:13;22.73;;;13.60;;
78931;SDS011;68331;53.362;55.932;2023-03-23T11:32:22;25.13;;;13.48;;
78931;SDS011;68331;53.362;55.932;2023-03-23T11:34:54;26.38;;;14.10;;
78931;SDS011;68331;53.362;55.932;2023-03-23T11:39:58;22.88;;;11.98;;
78931;SDS011;68331;53.362;55.932;2023-03-23T11:48:06;23.15;;;13.48;;
78931;SDS011;68331;53.362;55.932;2023-03-23T11:50:53;19.83;;;11.95;;
78931;SDS011;68331;53.362;55.932;2023-03-23T11:58:58;20.23;;;12.20;;
78931;SDS011;68331;53.362;55.932;2023-03-23T12:17:51;19.77;;;11.90;;
78931;SDS011;68331;53.362;55.932;2023-03-23T12:20:41;18.38;;;10.90;;
78931;SDS011;68331;53.362;55.932;2023-03-23T12:23:51;20.10;;;10.85;;
78931;SDS011;68331;53.362;55.932;2023-03-23T12:26:30;20.48;;;11.10;;
78931;SDS011;68331;53.362;55.932;2023-03-23T12:31:35;16.90;;;10.60;;
78931;SDS011;68331;53.362;55.932;2023-03-23T12:50:28;15.80;;;8.88;;
78931;SDS011;68331;53.362;55.932;2023-03-23T12:55:44;19.10;;;10.02;;
78931;SDS011;68331;53.362;55.932;2023-03-23T12:58:27;18.40;;;10.13;;
78931;SDS011;68331;53.362;55.932;2023-03-23T13:01:00;18.35;;;9.80;;
78931;SDS011;68331;53.362;55.932;2023-03-23T13:09:08;15.27;;;9.55;;
78931;SDS011;68331;53.362;55.932;2023-03-23T13:11:38;15.40;;;10.48;;
78931;SDS011;68331;53.362;55.932;2023-03-23T13:17:13;16.10;;;8.50;;
78931;SDS011;68331;53.362;55.932;2023-03-23T13:20:05;14.13;;;9.00;;
78931;SDS011;68331;53.362;55.932;2023-03-23T13:25:32;13.07;;;9.13;;
78931;SDS011;68331;53.362;55.932;2023-03-23T13:28:15;20.58;;;9.90;;
78931;SDS011;68331;53.362;55.932;2023-03-23T13:31:20;15.70;;;9.98;;
78931;SDS011;68331;53.362;55.932;2023-03-23T13:33:38;14.98;;;8.68;;
78931;SDS011;68331;53.362;55.932;2023-03-23T13:36:12;17.27;;;9.88;;
78931;SDS011;68331;53.362;55.932;2023-03-23T13:38:48;17.73;;;9.57;;
78931;SDS011;68331;53.362;55.932;2023-03-23T13:41:17;18.40;;;9.95;;
78931;SDS011;68331;53.362;55.932;2023-03-23T13:43:46;17.50;;;9.73;;
78931;SDS011;68331;53.362;55.932;2023-03-23T13:56:52;23.65;;;10.25;;
78931;SDS011;68331;53.362;55.932;2023-03-23T14:01:53;19.65;;;10.07;;
78931;SDS011;68331;53.362;55.932;2023-03-23T14:04:21;21.15;;;10.50;;
78931;SDS011;68331;53.362;55.932;2023-03-23T14:06:56;18.13;;;10.48;;
78931;SDS011;68331;53.362;55.932;2023-03-23T14:09:28;15.68;;;9.60;;
78931;SDS011;68331;53.362;55.932;2023-03-23T14:12:02;16.23;;;8.80;;
78931;SDS011;68331;53.362;55.932;2023-03-23T14:15:11;14.70;;;9.98;;
78931;SDS011;68331;53.362;55.932;2023-03-23T14:17:40;18.17;;;9.27;;
78931;SDS011;68331;53.362;55.932;2023-03-23T14:20:10;16.38;;;10.07;;
78931;SDS011;68331;53.362;55.932;2023-03-23T14:22:56;13.25;;;9.52;;
78931;SDS011;68331;53.362;55.932;2023-03-23T14:25:22;17.70;;;9.90;;
78931;SDS011;68331;53.362;55.932;2023-03-23T14:27:56;14.57;;;8.88;;
78931;SDS011;68331;53.362;55.932;2023-03-23T14:30:40;15.65;;;9.50;;
78931;SDS011;68331;53.362;55.932;2023-03-23T14:33:06;15.23;;;10.15;;
78931;SDS011;68331;53.362;55.932;2023-03-23T14:35:37;17.48;;;9.65;;
78931;SDS011;68331;53.362;55.932;2023-03-23T14:38:11;18.17;;;10.23;;
78931;SDS011;68331;53.362;55.932;2023-03-23T14:40:44;21.92;;;10.07;;
78931;SDS011;68331;53.362;55.932;2023-03-23T14:43:10;14.27;;;9.30;;
78931;SDS011;68331;53.362;55.932;2023-03-23T14:45:47;15.30;;;9.15;;
78931;SDS011;68331;53.362;55.932;2023-03-23T14:48:20;17.45;;;10.35;;
78931;SDS011;68331;53.362;55.932;2023-03-23T14:50:57;16.33;;;9.70;;
78931;SDS011;68331;53.362;55.932;2023-03-23T14:53:52;19.38;;;10.60;;
78931;SDS011;68331;53.362;55.932;2023-03-23T14:56:20;17.35;;;10.15;;
78931;SDS011;68331;53.362;55.932;2023-03-23T14:58:49;22.40;;;10.70;;
78931;SDS011;68331;53.362;55.932;2023-03-23T15:01:24;16.48;;;9.70;;
78931;SDS011;68331;53.362;55.932;2023-03-23T15:06:27;15.73;;;10.57;;
78931;SDS011;68331;53.362;55.932;2023-03-23T15:08:57;20.05;;;9.95;;
78931;SDS011;68331;53.362;55.932;2023-03-23T15:11:33;17.13;;;10.68;;
78931;SDS011;68331;53.362;55.932;2023-03-23T15:14:10;25.05;;;10.23;;
78931;SDS011;68331;53.362;55.932;2023-03-23T15:16:49;16.15;;;10.27;;
78931;SDS011;68331;53.362;55.932;2023-03-23T15:19:19;21.83;;;11.63;;
78931;SDS011;68331;53.362;55.932;2023-03-23T15:22:28;17.65;;;9.13;;
78931;SDS011;68331;53.362;55.932;2023-03-23T15:25:18;17.63;;;9.50;;
78931;SDS011;68331;53.362;55.932;2023-03-23T15:27:54;16.95;;;10.50;;
78931;SDS011;68331;53.362;55.932;2023-03-23T15:30:37;18.60;;;10.65;;
78931;SDS011;68331;53.362;55.932;2023-03-23T15:33:14;18.25;;;10.32;;
78931;SDS011;68331;53.362;55.932;2023-03-23T15:35:44;16.80;;;10.85;;
78931;SDS011;68331;53.362;55.932;2023-03-23T15:40:49;29.83;;;11.10;;
78931;SDS011;68331;53.362;55.932;2023-03-23T15:45:55;16.58;;;10.05;;
78931;SDS011;68331;53.362;55.932;2023-03-23T15:48:32;18.25;;;10.65;;
78931;SDS011;68331;53.362;55.932;2023-03-23T15:51:10;17.52;;;9.98;;
78931;SDS011;68331;53.362;55.932;2023-03-23T15:56:05;17.20;;;9.45;;
78931;SDS011;68331;53.362;55.932;2023-03-23T15:58:33;17.80;;;10.60;;
78931;SDS011;68331;53.362;55.932;2023-03-23T16:06:15;20.27;;;12.98;;
78931;SDS011;68331;53.362;55.932;2023-03-23T16:08:44;15.65;;;9.75;;
78931;SDS011;68331;53.362;55.932;2023-03-23T16:11:14;17.85;;;9.82;;
78931;SDS011;68331;53.362;55.932;2023-03-23T16:13:42;19.33;;;9.65;;
78931;SDS011;68331;53.362;55.932;2023-03-23T16:16:11;17.33;;;9.57;;
78931;SDS011;68331;53.362;55.932;2023-03-23T16:18:42;18.52;;;9.77;;
78931;SDS011;68331;53.362;55.932;2023-03-23T16:21:08;16.70;;;10.77;;
78931;SDS011;68331;53.362;55.932;2023-03-23T16:23:38;21.35;;;11.02;;
78931;SDS011;68331;53.362;55.932;2023-03-23T16:26:05;20.17;;;11.07;;
78931;SDS011;68331;53.362;55.932;2023-03-23T16:28:31;20.98;;;11.00;;
78931;SDS011;68331;53.362;55.932;2023-03-23T16:30:57;17.98;;;11.55;;
78931;SDS011;68331;53.362;55.932;2023-03-23T16:33:24;19.17;;;10.07;;
78931;SDS011;68331;53.362;55.932;2023-03-23T16:35:50;28.63;;;17.23;;
78931;SDS011;68331;53.362;55.932;2023-03-23T16:38:16;21.30;;;10.82;;
78931;SDS011;68331;53.362;55.932;2023-03-23T16:40:43;14.45;;;9.60;;
78931;SDS011;68331;53.362;55.932;2023-03-23T16:43:11;18.58;;;10.25;;
78931;SDS011;68331;53.362;55.932;2023-03-23T16:45:38;13.48;;;9.40;;
78931;SDS011;68331;53.362;55.932;2023-03-23T16:48:06;17.00;;;10.50;;
78931;SDS011;68331;53.362;55.932;2023-03-23T16:50:33;17.95;;;9.55;;
78931;SDS011;68331;53.362;55.932;2023-03-23T16:53:02;24.63;;;9.95;;
78931;SDS011;68331;53.362;55.932;2023-03-23T16:57:56;21.40;;;9.00;;
78931;SDS011;68331;53.362;55.932;2023-03-23T17:00:23;13.25;;;9.90;;
78931;SDS011;68331;53.362;55.932;2023-03-23T17:02:52;14.23;;;9.85;;
78931;SDS011;68331;53.362;55.932;2023-03-23T17:05:22;18.38;;;9.45;;
78931;SDS011;68331;53.362;55.932;2023-03-23T17:07:51;16.13;;;9.77;;
78931;SDS011;68331;53.362;55.932;2023-03-23T17:10:20;15.38;;;8.95;;
78931;SDS011;68331;53.362;55.932;2023-03-23T17:12:48;18.35;;;9.95;;
78931;SDS011;68331;53.362;55.932;2023-03-23T17:15:14;22.45;;;9.73;;
78931;SDS011;68331;53.362;55.932;2023-03-23T17:17:41;18.05;;;9.63;;
78931;SDS011;68331;53.362;55.932;2023-03-23T17:20:07;80.50;;;16.48;;
78931;SDS011;68331;53.362;55.932;2023-03-23T17:22:35;33.33;;;10.52;;
78931;SDS011;68331;53.362;55.932;2023-03-23T17:25:03;18.35;;;10.13;;